Time;durP1;ratioP1;P1;durP2;ratioP2;P2;SDS_P1;SDS_P2;PMS_P1;PMS_P2;Temp;Humidity;BMP_temperature;BMP_pressure;BME280_temperature;BME280_humidity;BME280_pressure;Samples;Min_cycle;Max_cycle;Signal;HPM_P1;HPM_P2
2021/08/02 00:02:37;;;;;;;;;;;;;;;14.00;80.45;96273.56;5078359;28;20347;-76
2021/08/02 00:05:06;;;;;;;;;;;;;;;13.98;81.11;96265.13;5079938;28;19965;-77
2021/08/02 00:07:36;;;;;;;;;;;;;;;13.97;81.37;96273.28;5074215;28;19975;-77
2021/08/02 00:10:09;;;;;;;;;;;;;;;13.96;81.87;96267.22;5062947;28;19972;-76
2021/08/02 00:12:46;;;;;;;;;;;;;;;13.95;82.44;96268.25;5074802;28;19984;-77
2021/08/02 00:15:12;;;;;;;;;;;;;;;13.96;82.25;96269.84;5086549;28;19987;-77
2021/08/02 00:17:39;;;;;;;;;;;;;;;13.99;82.95;96266.72;5083542;28;19968;-77
2021/08/02 00:20:06;;;;;;;;;;;;;;;14.00;83.34;96270.94;5069101;28;19975;-77
2021/08/02 00:22:32;;;;;;;;;;;;;;;14.01;83.23;96272.53;5086297;28;20413;-75
2021/08/02 00:24:58;;;;;;;;;;;;;;;14.01;82.45;96277.81;5087127;28;19961;-76
2021/08/02 00:27:24;;;;;;;;;;;;;;;13.99;82.30;96268.56;5068020;28;19964;-76
2021/08/02 00:29:51;;;;;;;;;;;;;;;13.95;82.18;96273.50;5089225;28;19972;-75
2021/08/02 00:32:17;;;;;;;;;;;;;;;13.92;82.81;96270.56;5084897;28;19987;-77
2021/08/02 00:34:43;;;;;;;;;;;;;;;13.87;83.60;96265.22;5087521;28;19960;-76
2021/08/02 00:37:14;;;;;;;;;;;;;;;13.85;83.50;96269.94;5069078;28;19975;-76
2021/08/02 00:39:53;;;;;;;;;;;;;;;13.87;83.79;96275.78;5050734;28;20429;-75
2021/08/02 00:42:38;;;;;;;;;;;;;;;13.89;83.61;96274.47;5086643;28;20028;-76
2021/08/02 00:45:06;;;;;;;;;;;;;;;13.93;84.10;96275.59;5090636;28;19965;-75
2021/08/02 00:47:34;;;;;;;;;;;;;;;13.94;83.93;96279.84;5063800;28;19972;-74
2021/08/02 00:50:05;;;;;;;;;;;;;;;13.96;83.44;96284.84;5086805;28;20004;-75
2021/08/02 00:52:32;;;;;;;;;;;;;;;13.97;83.74;96278.53;5088067;28;19988;-75
2021/08/02 00:54:59;;;;;;;;;;;;;;;14.00;83.21;96275.41;5086491;28;19972;-76
2021/08/02 00:57:27;;;;;;;;;;;;;;;14.02;83.20;96278.59;5085464;28;20309;-74
2021/08/02 01:00:00;;;;;;;;;;;;;;;14.04;83.28;96278.38;5083071;28;19965;-76
2021/08/02 01:02:26;;;;;;;;;;;;;;;14.05;83.22;96277.31;5069155;28;20009;-77
2021/08/02 01:04:53;;;;;;;;;;;;;;;14.04;83.33;96273.88;5091311;28;20359;-77
2021/08/02 01:07:19;;;;;;;;;;;;;;;14.02;83.53;96276.75;5083167;28;19960;-76
2021/08/02 01:09:46;;;;;;;;;;;;;;;14.00;83.35;96273.56;5085937;28;19965;-76
2021/08/02 01:12:12;;;;;;;;;;;;;;;14.02;83.46;96273.34;5087333;28;19987;-75
2021/08/02 01:14:39;;;;;;;;;;;;;;;14.02;83.35;96268.06;5086309;28;19961;-74
2021/08/02 01:17:06;;;;;;;;;;;;;;;14.05;83.40;96270.22;5088901;28;19965;-74
2021/08/02 01:19:32;;;;;;;;;;;;;;;14.06;83.14;96279.72;5091421;28;19972;-75
2021/08/02 01:21:59;;;;;;;;;;;;;;;14.07;83.57;96273.41;5080215;28;20067;-75
2021/08/02 01:24:26;;;;;;;;;;;;;;;14.08;83.71;96274.19;5087189;28;20344;-75
2021/08/02 01:27:15;;;;;;;;;;;;;;;14.06;83.57;96263.91;5091424;28;19969;-75
2021/08/02 01:30:02;;;;;;;;;;;;;;;14.08;83.89;96274.19;5055906;28;19968;-76
2021/08/02 01:32:28;;;;;;;;;;;;;;;14.11;83.80;96268.44;5078379;28;19984;-76
2021/08/02 01:34:54;;;;;;;;;;;;;;;14.11;83.41;96266.59;5048496;28;20367;-76
2021/08/02 01:37:20;;;;;;;;;;;;;;;14.11;83.49;96266.59;5084839;28;19966;-76
2021/08/02 01:39:51;;;;;;;;;;;;;;;14.10;83.28;96274.75;5091867;28;19964;-76
2021/08/02 01:42:17;;;;;;;;;;;;;;;14.08;83.27;96266.28;5087473;28;19965;-75
2021/08/02 01:44:43;;;;;;;;;;;;;;;14.08;83.46;96271.56;5084536;28;19972;-76
2021/08/02 01:47:20;;;;;;;;;;;;;;;14.09;83.20;96279.25;5066761;28;20499;-75
2021/08/02 01:50:03;;;;;;;;;;;;;;;14.08;83.23;96269.72;5091967;28;19999;-75
2021/08/02 01:52:32;;;;;;;;;;;;;;;14.09;83.16;96275.78;5085016;28;19980;-75
2021/08/02 01:55:06;;;;;;;;;;;;;;;14.11;83.21;96271.06;5084041;28;19975;-74
2021/08/02 01:57:49;;;;;;;;;;;;;;;14.10;83.74;96270.28;5085043;28;19965;-76
2021/08/02 02:00:15;;;;;;;;;;;;;;;14.11;83.61;96276.34;5082577;28;19961;-75
2021/08/02 02:02:47;;;;;;;;;;;;;;;14.12;83.88;96272.69;5082675;28;19980;-74
2021/08/02 02:05:17;;;;;;;;;;;;;;;14.11;83.84;96276.34;5062200;28;19965;-77
2021/08/02 02:07:46;;;;;;;;;;;;;;;14.07;83.42;96276.06;5085873;28;20444;-76
2021/08/02 02:10:13;;;;;;;;;;;;;;;14.06;84.01;96285.00;5089233;28;19968;-76
2021/08/02 02:12:41;;;;;;;;;;;;;;;14.06;84.53;96285.00;5068123;28;20557;-76
2021/08/02 02:15:07;;;;;;;;;;;;;;;14.06;84.84;96285.00;5086068;28;19964;-76
2021/08/02 02:17:35;;;;;;;;;;;;;;;14.07;85.10;96281.31;5079383;28;19968;-76
2021/08/02 02:20:01;;;;;;;;;;;;;;;14.05;84.86;96279.94;5083675;28;19973;-76
2021/08/02 02:22:27;;;;;;;;;;;;;;;14.06;85.03;96274.44;5084015;28;20421;-76
2021/08/02 02:24:53;;;;;;;;;;;;;;;14.06;84.84;96277.06;5066603;28;19967;-76
2021/08/02 02:27:19;;;;;;;;;;;;;;;14.05;85.24;96270.22;5070285;28;20325;-76
2021/08/02 02:29:46;;;;;;;;;;;;;;;14.02;84.89;96273.34;5083010;28;20343;-76
2021/08/02 02:32:12;;;;;;;;;;;;;;;13.99;84.99;96281.75;5081604;28;19969;-77
2021/08/02 02:34:39;;;;;;;;;;;;;;;13.96;85.33;96279.56;5068383;28;20486;-76
2021/08/02 02:37:06;;;;;;;;;;;;;;;13.92;85.53;96286.38;5083434;28;20327;-77
2021/08/02 02:39:33;;;;;;;;;;;;;;;13.91;85.67;96284.78;5087611;28;19968;-76
2021/08/02 02:42:00;;;;;;;;;;;;;;;13.93;85.83;96282.72;5080771;28;20320;-77
2021/08/02 02:44:26;;;;;;;;;;;;;;;13.95;85.36;96288.53;5078484;28;20412;-77
2021/08/02 02:46:53;;;;;;;;;;;;;;;13.97;85.53;96283.81;5091166;28;19973;-77
2021/08/02 02:49:20;;;;;;;;;;;;;;;13.96;85.41;96283.03;5083100;28;19988;-77
2021/08/02 02:51:47;;;;;;;;;;;;;;;13.97;85.26;96284.63;5082639;28;20340;-77
2021/08/02 02:54:13;;;;;;;;;;;;;;;13.98;85.26;96291.50;5087915;28;19992;-77
2021/08/02 02:56:39;;;;;;;;;;;;;;;13.98;85.47;96288.84;5083843;28;19971;-77
2021/08/02 02:59:05;;;;;;;;;;;;;;;13.99;85.61;96290.44;5084652;28;19968;-76
2021/08/02 03:01:35;;;;;;;;;;;;;;;14.00;85.39;96291.22;5079168;28;19973;-76
2021/08/02 03:04:01;;;;;;;;;;;;;;;14.00;85.59;96299.13;5084538;28;20313;-76
2021/08/02 03:06:28;;;;;;;;;;;;;;;13.96;84.99;96304.13;5091659;28;20343;-77
2021/08/02 03:08:54;;;;;;;;;;;;;;;13.96;85.22;96305.94;5051480;28;19976;-76
2021/08/02 03:11:21;;;;;;;;;;;;;;;13.96;85.59;96300.66;5084304;28;19964;-76
2021/08/02 03:13:50;;;;;;;;;;;;;;;13.97;85.73;96299.63;5084004;28;19991;-76
2021/08/02 03:16:17;;;;;;;;;;;;;;;13.97;85.74;96297.78;5065092;28;19972;-77
2021/08/02 03:18:43;;;;;;;;;;;;;;;13.98;85.56;96298.59;5058955;28;20424;-76
2021/08/02 03:21:09;;;;;;;;;;;;;;;13.98;85.59;96302.03;5064813;28;20018;-76
2021/08/02 03:23:46;;;;;;;;;;;;;;;13.99;85.26;96300.19;5085103;28;19965;-76
2021/08/02 03:26:17;;;;;;;;;;;;;;;13.97;84.96;96295.16;5065091;28;19960;-74
2021/08/02 03:28:53;;;;;;;;;;;;;;;13.99;85.10;96292.28;5080467;28;19965;-76
2021/08/02 03:31:26;;;;;;;;;;;;;;;13.99;85.35;96297.56;5083772;28;19965;-76
2021/08/02 03:33:52;;;;;;;;;;;;;;;13.98;85.47;96304.69;5064765;28;19981;-76
2021/08/02 03:36:18;;;;;;;;;;;;;;;13.98;85.47;96302.03;5089458;28;19961;-76
2021/08/02 03:38:47;;;;;;;;;;;;;;;13.99;85.39;96308.91;5084493;28;20362;-76
2021/08/02 03:41:14;;;;;;;;;;;;;;;13.99;85.55;96308.09;5081616;28;20421;-76
2021/08/02 03:43:41;;;;;;;;;;;;;;;13.99;85.33;96310.75;5087264;28;19976;-75
2021/08/02 03:46:08;;;;;;;;;;;;;;;13.97;84.78;96313.63;5087621;28;19961;-75
2021/08/02 03:48:36;;;;;;;;;;;;;;;13.96;84.87;96312.03;5091206;28;19975;-75
2021/08/02 03:51:02;;;;;;;;;;;;;;;13.97;84.97;96318.09;5086806;28;19992;-75
2021/08/02 03:53:37;;;;;;;;;;;;;;;13.97;85.19;96310.97;5088045;28;20070;-75
2021/08/02 03:56:03;;;;;;;;;;;;;;;13.98;85.08;96317.03;5086689;28;19964;-75
2021/08/02 03:58:29;;;;;;;;;;;;;;;13.96;85.41;96319.13;5070321;28;19965;-75
2021/08/02 04:00:55;;;;;;;;;;;;;;;13.94;85.12;96321.19;5084247;28;19960;-75
2021/08/02 04:03:21;;;;;;;;;;;;;;;13.93;85.34;96325.69;5086929;28;20025;-75
2021/08/02 04:05:46;;;;;;;;;;;;;;;13.93;85.85;96330.16;5074927;28;19968;-75
2021/08/02 04:08:12;;;;;;;;;;;;;;;13.91;84.96;96333.03;5088989;28;19968;-74
2021/08/02 04:10:38;;;;;;;;;;;;;;;13.88;85.63;96333.53;5085164;28;19957;-75
2021/08/02 04:13:04;;;;;;;;;;;;;;;13.86;85.63;96337.41;5084162;28;19977;-75
2021/08/02 04:15:30;;;;;;;;;;;;;;;13.85;86.04;96333.19;5081991;28;20428;-76
2021/08/02 04:17:56;;;;;;;;;;;;;;;13.88;86.02;96345.88;5093753;28;19960;-75
2021/08/02 04:20:22;;;;;;;;;;;;;;;13.85;86.06;96343.75;5054397;28;19968;-75
2021/08/02 04:22:48;;;;;;;;;;;;;;;13.81;85.40;96344.22;5081627;28;19968;-76
2021/08/02 04:25:14;;;;;;;;;;;;;;;13.81;85.40;96341.56;5087688;28;19979;-76
2021/08/02 04:27:40;;;;;;;;;;;;;;;13.85;86.32;96351.66;5069957;28;19964;-76
2021/08/02 04:30:06;;;;;;;;;;;;;;;13.88;86.29;96351.97;5070351;28;20331;-76
2021/08/02 04:32:31;;;;;;;;;;;;;;;13.90;85.50;96352.53;5068757;28;19973;-76
2021/08/02 04:34:57;;;;;;;;;;;;;;;13.90;85.68;96352.53;5065096;28;20401;-77
2021/08/02 04:37:23;;;;;;;;;;;;;;;13.90;85.50;96354.34;5055054;28;19961;-76
2021/08/02 04:39:49;;;;;;;;;;;;;;;13.91;85.35;96348.84;5091510;28;19969;-76
2021/08/02 04:42:15;;;;;;;;;;;;;;;13.93;85.95;96352.03;5082324;28;20440;-76
2021/08/02 04:44:41;;;;;;;;;;;;;;;13.95;85.53;96347.31;5083375;28;19996;-76
2021/08/02 04:47:07;;;;;;;;;;;;;;;13.98;85.95;96354.78;5088083;28;20007;-76
2021/08/02 04:49:33;;;;;;;;;;;;;;;14.00;85.60;96354.50;5089013;28;20452;-75
2021/08/02 04:51:58;;;;;;;;;;;;;;;14.01;85.59;96356.91;5081001;28;19975;-75
2021/08/02 04:54:24;;;;;;;;;;;;;;;14.02;85.88;96360.34;5083937;28;19984;-75
2021/08/02 04:56:50;;;;;;;;;;;;;;;14.01;85.96;96353.47;5049235;28;20000;-76
2021/08/02 04:59:16;;;;;;;;;;;;;;;14.02;85.96;96362.97;5073692;28;19964;-76
2021/08/02 05:01:42;;;;;;;;;;;;;;;14.01;86.14;96367.47;5067577;28;20047;-76
2021/08/02 05:04:08;;;;;;;;;;;;;;;14.00;86.19;96362.41;5084556;28;20354;-76
2021/08/02 05:06:34;;;;;;;;;;;;;;;14.01;85.35;96362.19;5089963;28;19996;-76
2021/08/02 05:09:00;;;;;;;;;;;;;;;14.00;86.31;96365.84;5089928;28;19995;-76
2021/08/02 05:11:25;;;;;;;;;;;;;;;14.01;85.99;96361.41;5084953;28;20471;-76
2021/08/02 05:13:51;;;;;;;;;;;;;;;13.99;85.76;96364.25;5062848;28;20079;-75
2021/08/02 05:16:17;;;;;;;;;;;;;;;13.99;86.04;96368.75;5087716;28;19975;-76
2021/08/02 05:18:43;;;;;;;;;;;;;;;13.99;86.25;96366.09;5080595;28;19971;-76
2021/08/02 05:21:09;;;;;;;;;;;;;;;13.98;85.97;96367.94;5065316;28;20000;-76
2021/08/02 05:23:35;;;;;;;;;;;;;;;13.97;85.56;96365.56;5086320;28;19968;-76
2021/08/02 05:26:01;;;;;;;;;;;;;;;13.97;86.35;96374.25;5069464;28;20443;-76
2021/08/02 05:28:30;;;;;;;;;;;;;;;13.99;86.97;96380.09;5085172;28;19968;-76
2021/08/02 05:30:55;;;;;;;;;;;;;;;13.98;86.23;96373.22;5066811;28;19972;-76
2021/08/02 05:33:21;;;;;;;;;;;;;;;13.97;85.57;96376.88;5066352;28;19980;-76
2021/08/02 05:35:47;;;;;;;;;;;;;;;13.97;86.13;96384.00;5086315;28;20055;-76
2021/08/02 05:38:13;;;;;;;;;;;;;;;13.99;86.39;96381.94;5090562;28;20433;-76
2021/08/02 05:40:39;;;;;;;;;;;;;;;13.99;85.78;96377.44;5089368;28;19983;-76
2021/08/02 05:43:05;;;;;;;;;;;;;;;14.04;86.02;96373.28;5061702;28;19971;-76
2021/08/02 05:45:31;;;;;;;;;;;;;;;14.06;85.95;96377.28;5086289;28;19972;-76
2021/08/02 05:47:57;;;;;;;;;;;;;;;14.08;85.71;96375.19;5074759;28;20343;-77
2021/08/02 05:50:23;;;;;;;;;;;;;;;14.10;85.91;96381.03;5085178;28;19989;-76
2021/08/02 05:52:49;;;;;;;;;;;;;;;14.15;85.27;96385.56;5081661;28;19969;-76
2021/08/02 05:55:17;;;;;;;;;;;;;;;14.18;85.44;96379.84;5072365;28;19969;-76
2021/08/02 05:57:43;;;;;;;;;;;;;;;14.24;86.21;96381.50;5070894;28;19976;-77
2021/08/02 06:00:09;;;;;;;;;;;;;;;14.27;84.75;96383.63;5084317;28;19971;-76
2021/08/02 06:02:35;;;;;;;;;;;;;;;14.26;84.36;96386.50;5084844;28;20039;-76
2021/08/02 06:05:01;;;;;;;;;;;;;;;14.29;85.06;96400.03;5066169;28;19977;-76
2021/08/02 06:07:27;;;;;;;;;;;;;;;14.32;84.26;96391.66;5090876;28;19961;-76
2021/08/02 06:09:55;;;;;;;;;;;;;;;14.37;84.81;96399.63;5085405;28;20011;-76
2021/08/02 06:12:21;;;;;;;;;;;;;;;14.41;85.97;96402.56;5081391;28;19972;-76
2021/08/02 06:14:47;;;;;;;;;;;;;;;14.45;84.48;96397.59;5085054;28;20444;-76
2021/08/02 06:17:13;;;;;;;;;;;;;;;14.49;84.95;96394.25;5083861;28;19983;-76
2021/08/02 06:19:43;;;;;;;;;;;;;;;14.57;85.65;96398.31;5085982;28;19971;-76
2021/08/02 06:22:10;;;;;;;;;;;;;;;14.66;84.85;96404.78;5086359;28;19975;-76
2021/08/02 06:24:35;;;;;;;;;;;;;;;14.74;84.73;96403.53;5085007;28;19972;-76
2021/08/02 06:27:01;;;;;;;;;;;;;;;14.79;84.15;96408.91;5060861;28;19973;-76
2021/08/02 06:29:27;;;;;;;;;;;;;;;14.84;82.69;96400.25;5071487;28;19965;-76
2021/08/02 06:31:53;;;;;;;;;;;;;;;14.84;81.06;96398.38;5089827;28;19968;-76
2021/08/02 06:34:19;;;;;;;;;;;;;;;14.86;81.11;96406.88;5080108;28;19977;-76
2021/08/02 06:36:45;;;;;;;;;;;;;;;14.87;80.76;96402.41;5083555;28;20089;-76
2021/08/02 06:39:11;;;;;;;;;;;;;;;14.93;81.66;96398.75;5087086;28;19960;-76
2021/08/02 06:41:37;;;;;;;;;;;;;;;14.99;81.72;96403.03;5087156;28;20413;-75
2021/08/02 06:44:03;;;;;;;;;;;;;;;15.02;82.29;96403.38;5080854;28;20003;-75
2021/08/02 06:46:29;;;;;;;;;;;;;;;15.08;81.50;96408.72;5084296;28;19965;-76
2021/08/02 06:48:55;;;;;;;;;;;;;;;15.09;80.24;96400.53;5085520;28;20051;-76
2021/08/02 06:51:21;;;;;;;;;;;;;;;15.13;80.28;96406.13;5087794;28;19977;-76
2021/08/02 06:53:47;;;;;;;;;;;;;;;15.15;78.71;96415.38;5084293;28;19984;-76
2021/08/02 06:56:14;;;;;;;;;;;;;;;15.14;79.39;96412.97;5079158;28;20019;-76
2021/08/02 06:58:40;;;;;;;;;;;;;;;15.19;79.94;96413.84;5084469;28;19976;-76
2021/08/02 07:01:06;;;;;;;;;;;;;;;15.27;79.91;96409.97;5087692;28;19992;-76
2021/08/02 07:03:32;;;;;;;;;;;;;;;15.37;80.07;96422.47;5087432;28;20424;-77
2021/08/02 07:05:58;;;;;;;;;;;;;;;15.43;78.86;96413.56;5085595;28;19968;-76
2021/08/02 07:08:24;;;;;;;;;;;;;;;15.39;78.50;96408.00;5065049;28;19965;-76
2021/08/02 07:10:50;;;;;;;;;;;;;;;15.45;79.25;96415.97;5066425;28;20039;-75
2021/08/02 07:13:16;;;;;;;;;;;;;;;15.55;79.84;96411.56;5067871;28;20417;-76
2021/08/02 07:15:42;;;;;;;;;;;;;;;15.67;79.70;96415.91;5087211;28;20063;-76
2021/08/02 07:18:09;;;;;;;;;;;;;;;15.81;78.49;96425.84;5083724;28;19976;-76
2021/08/02 07:20:35;;;;;;;;;;;;;;;15.93;77.73;96420.38;5082957;28;19968;-76
2021/08/02 07:23:00;;;;;;;;;;;;;;;16.08;78.69;96414.41;5082961;28;19995;-76
2021/08/02 07:25:26;;;;;;;;;;;;;;;16.27;76.72;96420.09;5081859;28;20010;-76
2021/08/02 07:27:55;;;;;;;;;;;;;;;16.49;76.78;96419.19;5064861;28;19991;-76
2021/08/02 07:30:21;;;;;;;;;;;;;;;16.87;75.26;96417.31;5065973;28;20488;-76
2021/08/02 07:32:47;;;;;;;;;;;;;;;16.99;74.59;96410.72;5088392;28;19968;-76
2021/08/02 07:35:13;;;;;;;;;;;;;;;17.20;75.37;96416.88;5068669;28;20027;-76
2021/08/02 07:37:39;;;;;;;;;;;;;;;17.39;73.25;96419.06;5085691;28;19969;-76
2021/08/02 07:40:05;;;;;;;;;;;;;;;17.44;71.51;96421.72;5083881;28;19968;-76
2021/08/02 07:42:31;;;;;;;;;;;;;;;17.33;72.11;96430.72;5082831;28;19977;-76
2021/08/02 07:44:57;;;;;;;;;;;;;;;17.29;71.98;96425.13;5087643;28;19973;-76
2021/08/02 07:47:23;;;;;;;;;;;;;;;17.36;72.32;96420.34;5084907;28;20424;-76
2021/08/02 07:49:49;;;;;;;;;;;;;;;17.44;72.45;96416.41;5064598;28;19988;-75
2021/08/02 07:52:15;;;;;;;;;;;;;;;17.44;73.42;96421.72;5060714;28;19980;-76
2021/08/02 07:54:41;;;;;;;;;;;;;;;17.53;72.02;96411.38;5079033;28;19984;-76
2021/08/02 07:57:07;;;;;;;;;;;;;;;17.54;72.04;96423.59;5080192;28;19960;-76
2021/08/02 07:59:33;;;;;;;;;;;;;;;17.52;72.10;96420.41;5080335;28;19979;-76
2021/08/02 08:01:59;;;;;;;;;;;;;;;17.53;71.93;96430.72;5085412;28;20337;-76
2021/08/02 08:04:25;;;;;;;;;;;;;;;17.54;73.62;96427.03;5064308;28;19968;-76
2021/08/02 08:06:51;;;;;;;;;;;;;;;17.54;71.74;96423.59;5082463;28;20014;-76
2021/08/02 08:09:17;;;;;;;;;;;;;;;17.48;72.09;96428.09;5061295;28;19965;-75
2021/08/02 08:11:43;;;;;;;;;;;;;;;17.47;72.39;96420.38;5083258;28;19995;-76
2021/08/02 08:14:09;;;;;;;;;;;;;;;17.38;71.31;96423.53;5068622;28;19972;-75
2021/08/02 08:16:35;;;;;;;;;;;;;;;17.30;71.66;96425.91;5063623;28;19971;-76
2021/08/02 08:19:01;;;;;;;;;;;;;;;17.27;70.53;96421.16;5078037;28;20324;-77
2021/08/02 08:21:27;;;;;;;;;;;;;;;17.17;71.21;96428.00;5088631;28;19975;-76
2021/08/02 08:23:53;;;;;;;;;;;;;;;17.27;73.19;96423.78;5083097;28;19968;-76
2021/08/02 08:26:19;;;;;;;;;;;;;;;17.45;72.15;96418.81;5081555;28;19960;-75
2021/08/02 08:28:45;;;;;;;;;;;;;;;17.60;70.98;96415.38;5081305;28;20367;-75
2021/08/02 08:31:11;;;;;;;;;;;;;;;17.67;66.84;96398.41;5090280;28;19979;-76
2021/08/02 08:33:37;;;;;;;;;;;;;;;17.70;70.52;96419.91;5082142;28;19964;-75
2021/08/02 08:36:03;;;;;;;;;;;;;;;17.79;69.17;96412.22;5085921;28;19956;-76
2021/08/02 08:38:29;;;;;;;;;;;;;;;17.94;70.24;96420.22;5069386;28;19971;-76
2021/08/02 08:40:55;;;;;;;;;;;;;;;18.18;69.46;96415.16;5083724;28;19968;-76
2021/08/02 08:43:21;;;;;;;;;;;;;;;18.47;66.59;96396.00;5087697;28;20428;-76
2021/08/02 08:45:47;;;;;;;;;;;;;;;18.53;65.37;96391.47;5085911;28;20356;-76
2021/08/02 08:48:13;;;;;;;;;;;;;;;18.40;65.09;96401.59;5086464;28;19961;-76
2021/08/02 08:50:40;;;;;;;;;;;;;;;18.22;66.04;96412.75;5088253;28;20355;-76
2021/08/02 08:53:12;;;;;;;;;;;;;;;18.15;66.57;96412.25;5084727;28;19973;-76
2021/08/02 08:55:41;;;;;;;;;;;;;;;18.10;67.89;96418.34;5081341;28;20436;-76
2021/08/02 08:58:07;;;;;;;;;;;;;;;18.09;68.33;96422.06;5084558;28;19976;-76
2021/08/02 09:00:34;;;;;;;;;;;;;;;18.09;68.20;96413.31;5089025;28;20394;-76
2021/08/02 09:03:07;;;;;;;;;;;;;;;18.14;69.24;96410.63;5088940;28;20424;-76
2021/08/02 09:05:34;;;;;;;;;;;;;;;18.25;69.49;96406.94;5066382;28;19968;-76
2021/08/02 09:08:01;;;;;;;;;;;;;;;18.32;68.62;96404.00;5080913;28;19965;-76
2021/08/02 09:10:28;;;;;;;;;;;;;;;18.21;69.28;96411.19;5064912;28;19961;-76
2021/08/02 09:12:55;;;;;;;;;;;;;;;18.21;71.67;96409.31;5085030;28;19969;-77
2021/08/02 09:15:30;;;;;;;;;;;;;;;18.29;72.13;96405.34;5066939;28;20353;-79
2021/08/02 09:17:56;;;;;;;;;;;;;;;18.35;72.13;96403.44;5079031;28;19968;-78
2021/08/02 09:20:23;;;;;;;;;;;;;;;18.40;72.06;96406.91;5066301;28;19971;-77
2021/08/02 09:22:50;;;;;;;;;;;;;;;18.49;71.96;96406.34;5080014;28;19976;-78
2021/08/02 09:25:20;;;;;;;;;;;;;;;18.56;71.43;96406.84;5092583;28;19961;-77
2021/08/02 09:27:47;;;;;;;;;;;;;;;18.61;71.22;96406.84;5087884;28;20439;-77
2021/08/02 09:30:13;;;;;;;;;;;;;;;18.72;68.92;96399.66;5084200;28;20420;-77
2021/08/02 09:32:46;;;;;;;;;;;;;;;18.81;68.12;96400.69;5061932;28;20425;-77
2021/08/02 09:35:12;;;;;;;;;;;;;;;18.90;67.77;96395.59;5062994;28;19999;-76
2021/08/02 09:37:38;;;;;;;;;;;;;;;19.04;69.21;96397.41;5085138;28;19968;-76
2021/08/02 09:40:07;;;;;;;;;;;;;;;19.12;67.02;96395.25;5081784;28;19964;-77
2021/08/02 09:42:33;;;;;;;;;;;;;;;19.06;66.00;96391.81;5086832;28;19973;-76
2021/08/02 09:45:01;;;;;;;;;;;;;;;18.95;66.48;96388.41;5084585;28;19961;-76
2021/08/02 09:47:27;;;;;;;;;;;;;;;18.83;66.75;96394.03;5088839;28;19961;-76
2021/08/02 09:49:54;;;;;;;;;;;;;;;18.74;68.41;96394.84;5087517;28;19996;-76
2021/08/02 09:52:21;;;;;;;;;;;;;;;18.67;68.28;96387.97;5086419;28;20340;-76
2021/08/02 09:54:47;;;;;;;;;;;;;;;18.60;66.24;96389.31;5081688;28;19987;-76
2021/08/02 09:57:13;;;;;;;;;;;;;;;18.55;64.74;96374.19;5088802;28;20340;-76
2021/08/02 09:59:43;;;;;;;;;;;;;;;18.57;67.66;96392.53;5086352;28;19968;-76
2021/08/02 10:02:10;;;;;;;;;;;;;;;18.68;66.01;96383.44;5078633;28;19971;-77
2021/08/02 10:04:36;;;;;;;;;;;;;;;18.79;63.86;96362.97;5065496;28;19965;-76
2021/08/02 10:07:06;;;;;;;;;;;;;;;18.92;67.03;96381.00;5088027;28;19991;-76
2021/08/02 10:09:33;;;;;;;;;;;;;;;19.21;65.17;96370.50;5062515;28;19980;-76
2021/08/02 10:11:58;;;;;;;;;;;;;;;19.51;61.33;96338.63;5082703;28;19965;-76
2021/08/02 10:14:29;;;;;;;;;;;;;;;19.55;57.49;96321.06;5088323;28;20004;-76
2021/08/02 10:16:55;;;;;;;;;;;;;;;19.44;59.72;96345.09;5087842;28;19968;-75
2021/08/02 10:19:33;;;;;;;;;;;;;;;19.38;57.04;96316.94;5063700;28;19969;-75
2021/08/02 10:22:00;;;;;;;;;;;;;;;19.42;56.60;96322.47;5085690;28;19972;-76
2021/08/02 10:24:26;;;;;;;;;;;;;;;19.36;60.43;96348.34;5084256;28;19971;-76
2021/08/02 10:26:59;;;;;;;;;;;;;;;19.36;60.26;96355.50;5062174;28;19969;-76
2021/08/02 10:29:38;;;;;;;;;;;;;;;19.29;58.65;96337.19;5082587;28;19961;-76
2021/08/02 10:32:04;;;;;;;;;;;;;;;19.24;60.08;96355.84;5066364;28;20416;-76
2021/08/02 10:34:30;;;;;;;;;;;;;;;19.13;61.34;96367.59;5065653;28;19984;-76
2021/08/02 10:37:00;;;;;;;;;;;;;;;19.03;60.41;96361.28;5066172;28;20390;-76
2021/08/02 10:39:28;;;;;;;;;;;;;;;18.94;61.68;96376.22;5080205;28;19965;-76
2021/08/02 10:42:23;;;;;;;;;;;;;;;18.85;62.28;96373.31;5082904;28;19969;-76
2021/08/02 10:44:56;;;;;;;;;;;;;;;18.75;63.11;96381.31;5072677;28;19972;-76
2021/08/02 10:47:22;;;;;;;;;;;;;;;18.64;65.54;96395.69;5051580;28;20345;-77
2021/08/02 10:49:49;;;;;;;;;;;;;;;18.49;66.86;96398.38;5084362;28;19989;-80
2021/08/02 10:52:24;;;;;;;;;;;;;;;18.31;69.17;96397.91;5086115;28;19976;-78
2021/08/02 10:54:50;;;;;;;;;;;;;;;18.16;70.58;96389.94;5083175;28;20455;-78
2021/08/02 10:57:16;;;;;;;;;;;;;;;18.07;71.52;96387.03;5082958;28;20004;-78
2021/08/02 10:59:42;;;;;;;;;;;;;;;18.16;72.85;96381.97;5081427;28;20407;-78
2021/08/02 11:02:12;;;;;;;;;;;;;;;18.39;68.97;96378.75;5055342;28;19964;-78
2021/08/02 11:04:38;;;;;;;;;;;;;;;18.53;67.77;96367.56;5084144;28;19964;-77
2021/08/02 11:07:04;;;;;;;;;;;;;;;18.59;68.92;96377.13;5082477;28;19968;-77
2021/08/02 11:09:31;;;;;;;;;;;;;;;18.56;67.07;96367.84;5062594;28;19965;-77
2021/08/02 11:12:03;;;;;;;;;;;;;;;18.52;68.89;96369.44;5082019;28;19965;-76
2021/08/02 11:14:29;;;;;;;;;;;;;;;18.50;69.57;96374.22;5090043;28;19980;-77
2021/08/02 11:16:55;;;;;;;;;;;;;;;18.51;70.15;96373.16;5062474;28;19976;-76
2021/08/02 11:19:21;;;;;;;;;;;;;;;18.53;70.11;96375.53;5083564;28;20012;-77
2021/08/02 11:21:48;;;;;;;;;;;;;;;18.57;68.23;96364.09;5089317;28;20014;-77
2021/08/02 11:24:14;;;;;;;;;;;;;;;18.59;66.64;96361.97;5082054;28;19975;-77
2021/08/02 11:26:46;;;;;;;;;;;;;;;18.63;68.83;96376.28;5079884;28;19971;-76
2021/08/02 11:29:19;;;;;;;;;;;;;;;18.63;69.17;96359.56;5064576;28;19965;-77
2021/08/02 11:31:57;;;;;;;;;;;;;;;18.82;67.40;96357.91;5084164;28;19971;-77
2021/08/02 11:34:24;;;;;;;;;;;;;;;19.17;66.55;96360.66;5070222;28;19980;-77
2021/08/02 11:36:57;;;;;;;;;;;;;;;19.36;63.69;96351.00;5082935;28;19968;-76
2021/08/02 11:39:23;;;;;;;;;;;;;;;19.55;64.72;96367.09;5082173;28;19960;-76
2021/08/02 11:41:58;;;;;;;;;;;;;;;19.80;63.05;96355.50;5084319;28;19968;-76
2021/08/02 11:44:24;;;;;;;;;;;;;;;20.14;61.97;96336.00;5081995;28;19968;-76
2021/08/02 11:46:50;;;;;;;;;;;;;;;20.35;58.12;96317.94;5090264;28;19976;-77
2021/08/02 11:49:16;;;;;;;;;;;;;;;20.19;60.06;96335.16;5083703;28;19992;-76
2021/08/02 11:51:44;;;;;;;;;;;;;;;19.98;60.27;96338.00;5077591;28;19973;-76
2021/08/02 11:54:20;;;;;;;;;;;;;;;19.91;62.33;96347.38;5055026;28;19974;-76
2021/08/02 11:56:46;;;;;;;;;;;;;;;19.89;61.66;96338.91;5081067;28;20416;-76
2021/08/02 11:59:19;;;;;;;;;;;;;;;19.95;61.75;96340.44;5066471;28;20019;-76
2021/08/02 12:01:49;;;;;;;;;;;;;;;19.96;61.76;96348.16;5088647;28;19965;-76
2021/08/02 12:04:16;;;;;;;;;;;;;;;20.05;62.22;96343.00;5086139;28;19968;-76
2021/08/02 12:06:56;;;;;;;;;;;;;;;20.12;61.92;96340.03;5086490;28;19980;-75
2021/08/02 12:09:31;;;;;;;;;;;;;;;20.06;60.59;96340.06;5085429;28;19968;-76
2021/08/02 12:11:58;;;;;;;;;;;;;;;20.03;59.72;96327.34;5068141;28;19964;-76
2021/08/02 12:14:25;;;;;;;;;;;;;;;20.06;62.30;96355.25;5091177;28;20337;-77
2021/08/02 12:17:04;;;;;;;;;;;;;;;20.09;61.93;96346.69;5071798;28;19964;-76
2021/08/02 12:19:30;;;;;;;;;;;;;;;20.12;59.37;96332.06;5086333;28;19980;-76
2021/08/02 12:21:58;;;;;;;;;;;;;;;20.07;57.82;96320.38;5087273;28;19975;-76
2021/08/02 12:24:25;;;;;;;;;;;;;;;19.93;59.74;96330.09;5059450;28;19965;-76
2021/08/02 12:26:52;;;;;;;;;;;;;;;19.82;60.55;96342.69;5086587;28;19965;-76
2021/08/02 12:29:25;;;;;;;;;;;;;;;19.77;61.17;96349.91;5091128;28;19964;-78
2021/08/02 12:31:55;;;;;;;;;;;;;;;19.72;61.85;96355.25;5085086;28;19964;-76
2021/08/02 12:34:22;;;;;;;;;;;;;;;19.70;61.11;96357.38;5085970;28;19960;-76
2021/08/02 12:36:48;;;;;;;;;;;;;;;19.67;61.49;96353.41;5086792;28;19969;-76
2021/08/02 12:39:14;;;;;;;;;;;;;;;19.62;61.02;96345.50;5088228;28;19965;-77
2021/08/02 12:41:40;;;;;;;;;;;;;;;19.60;61.48;96359.06;5091331;28;19975;-76
2021/08/02 12:44:05;;;;;;;;;;;;;;;19.61;61.43;96355.34;5086426;28;20371;-77
2021/08/02 12:46:31;;;;;;;;;;;;;;;19.65;62.22;96356.38;5087913;28;19969;-76
2021/08/02 12:48:57;;;;;;;;;;;;;;;19.68;58.75;96323.09;5051894;28;20004;-76
2021/08/02 12:51:23;;;;;;;;;;;;;;;19.67;62.14;96348.91;5065813;28;19980;-76